IGO6017 VOBL-VOMM
Flight info
| Callsign | IGO6017 |
|---|---|
| Flight time | 0h 36m |
| Altitude | 17000 |
| Route | BIA W116 MMV |
| Aircraft | A320/M-SDE3FGHIRWY/LB1 |
Departure
| Time | 2026-05-05 12:55 |
|---|---|
| Airport | Kempegowda International Airport Bengaluru (VOBL) |
Arrival
| Time | 2026-05-05 13:32 |
|---|---|
| Airport | Chennai International Airport (VOMM) |
| Time | Latitude | Longitude | Altitude | Speed | Heading |
|---|---|---|---|---|---|
| 2026-05-05 12:21 | 13.20362 | 77.70107 | 2972 ft | 0 kts | 3° |
| 2026-05-05 12:36 | 13.20351 | 77.70107 | 2972 ft | 2 kts | 4° |
| 2026-05-05 12:37 | 13.20334 | 77.70105 | 2972 ft | 2 kts | 4° |
| 2026-05-05 12:37 | 13.20317 | 77.70105 | 2972 ft | 2 kts | 11° |
| 2026-05-05 12:37 | 13.20303 | 77.70096 | 2972 ft | 2 kts | 82° |
| 2026-05-05 12:37 | 13.20302 | 77.70093 | 2972 ft | 0 kts | 95° |
| 2026-05-05 12:44 | 13.20301 | 77.70102 | 2972 ft | 3 kts | 95° |
| 2026-05-05 12:44 | 13.20298 | 77.70137 | 2972 ft | 7 kts | 95° |
| 2026-05-05 12:44 | 13.20295 | 77.70169 | 2971 ft | 0 kts | 95° |
| 2026-05-05 12:44 | 13.20289 | 77.70235 | 2969 ft | 14 kts | 95° |
| 2026-05-05 12:45 | 13.20288 | 77.70346 | 2967 ft | 17 kts | 78° |
| 2026-05-05 12:45 | 13.20391 | 77.70393 | 2956 ft | 19 kts | 6° |
| 2026-05-05 12:45 | 13.20519 | 77.70396 | 2965 ft | 19 kts | 13° |
| 2026-05-05 12:45 | 13.20534 | 77.70446 | 2964 ft | 13 kts | 96° |
| 2026-05-05 12:46 | 13.20527 | 77.70600 | 2961 ft | 29 kts | 88° |
| 2026-05-05 12:46 | 13.20528 | 77.70831 | 2955 ft | 33 kts | 90° |
| 2026-05-05 12:46 | 13.20528 | 77.70953 | 2952 ft | 13 kts | 90° |
| 2026-05-05 12:46 | 13.20526 | 77.71042 | 2950 ft | 4 kts | 91° |
| 2026-05-05 12:47 | 13.20525 | 77.71083 | 2949 ft | 7 kts | 91° |
| 2026-05-05 12:47 | 13.20524 | 77.71147 | 2948 ft | 11 kts | 92° |
| 2026-05-05 12:47 | 13.20520 | 77.71235 | 2941 ft | 14 kts | 92° |
| 2026-05-05 12:47 | 13.20526 | 77.71347 | 2944 ft | 18 kts | 86° |
| 2026-05-05 12:48 | 13.20527 | 77.71485 | 2941 ft | 21 kts | 91° |
| 2026-05-05 12:48 | 13.20523 | 77.71648 | 2938 ft | 25 kts | 91° |
| 2026-05-05 12:48 | 13.20518 | 77.71836 | 2933 ft | 28 kts | 91° |
| 2026-05-05 12:48 | 13.20517 | 77.72021 | 2929 ft | 25 kts | 90° |
| 2026-05-05 12:49 | 13.20516 | 77.72151 | 2926 ft | 11 kts | 90° |
| 2026-05-05 12:49 | 13.20519 | 77.72245 | 2924 ft | 15 kts | 76° |
| 2026-05-05 12:49 | 13.20557 | 77.72279 | 2924 ft | 0 kts | 15° |
| 2026-05-05 12:51 | 13.20559 | 77.72279 | 2924 ft | 1 kts | 15° |
| 2026-05-05 12:51 | 13.20595 | 77.72285 | 2923 ft | 9 kts | 4° |
| 2026-05-05 12:52 | 13.20675 | 77.72259 | 2924 ft | 15 kts | 313° |
| 2026-05-05 12:52 | 13.20689 | 77.72155 | 2926 ft | 0 kts | 270° |
| 2026-05-05 12:53 | 13.20689 | 77.72154 | 2926 ft | 0 kts | 270° |
| 2026-05-05 12:54 | 13.20689 | 77.72153 | 2926 ft | 0 kts | 270° |
| 2026-05-05 12:54 | 13.20689 | 77.72149 | 2926 ft | 1 kts | 270° |
| 2026-05-05 12:54 | 13.20690 | 77.72028 | 2929 ft | 55 kts | 271° |
| 2026-05-05 12:55 | 13.20693 | 77.71332 | 2944 ft | 135 kts | 270° |
| 2026-05-05 12:55 | 13.20710 | 77.70155 | 3034 ft | 189 kts | 269° |
| 2026-05-05 12:55 | 13.20701 | 77.68714 | 3598 ft | 216 kts | 271° |
| 2026-05-05 12:55 | 13.20687 | 77.67147 | 4142 ft | 228 kts | 269° |
| 2026-05-05 12:56 | 13.20665 | 77.65439 | 4487 ft | 252 kts | 270° |
| 2026-05-05 12:56 | 13.20627 | 77.63582 | 4844 ft | 275 kts | 270° |
| 2026-05-05 12:56 | 13.20574 | 77.61590 | 4986 ft | 281 kts | 271° |
| 2026-05-05 12:56 | 13.20497 | 77.59582 | 5008 ft | 282 kts | 268° |
| 2026-05-05 12:57 | 13.20388 | 77.57573 | 5006 ft | 283 kts | 268° |
| 2026-05-05 12:57 | 13.20329 | 77.55547 | 4999 ft | 285 kts | 270° |
| 2026-05-05 12:57 | 13.20303 | 77.53520 | 5004 ft | 284 kts | 272° |
| 2026-05-05 12:57 | 13.20732 | 77.51587 | 5141 ft | 273 kts | 302° |
| 2026-05-05 12:58 | 13.21835 | 77.50116 | 6376 ft | 249 kts | 313° |
| 2026-05-05 12:58 | 13.22938 | 77.48841 | 7567 ft | 232 kts | 314° |
| 2026-05-05 12:58 | 13.23998 | 77.47614 | 8458 ft | 229 kts | 314° |
| 2026-05-05 12:58 | 13.25046 | 77.46407 | 9212 ft | 230 kts | 313° |
| 2026-05-05 12:59 | 13.25825 | 77.44963 | 9933 ft | 238 kts | 285° |
| 2026-05-05 12:59 | 13.25779 | 77.43258 | 10566 ft | 246 kts | 253° |
| 2026-05-05 12:59 | 13.24874 | 77.41760 | 11228 ft | 253 kts | 223° |
| 2026-05-05 13:00 | 13.21543 | 77.40893 | 12556 ft | 261 kts | 163° |
| 2026-05-05 13:00 | 13.19953 | 77.41767 | 13224 ft | 262 kts | 139° |
| 2026-05-05 13:01 | 13.16097 | 77.45813 | 15146 ft | 269 kts | 117° |
| 2026-05-05 13:01 | 13.15539 | 77.47633 | 15741 ft | 270 kts | 92° |
| 2026-05-05 13:01 | 13.15763 | 77.49535 | 16343 ft | 270 kts | 73° |
| 2026-05-05 13:01 | 13.16253 | 77.51418 | 16832 ft | 280 kts | 74° |
| 2026-05-05 13:02 | 13.16780 | 77.53425 | 16948 ft | 303 kts | 73° |
| 2026-05-05 13:02 | 13.17351 | 77.55603 | 16973 ft | 329 kts | 74° |
| 2026-05-05 13:02 | 13.17963 | 77.57951 | 16973 ft | 353 kts | 75° |
| 2026-05-05 13:02 | 13.18611 | 77.60458 | 16972 ft | 373 kts | 75° |
| 2026-05-05 13:03 | 13.19277 | 77.63065 | 16975 ft | 380 kts | 75° |
| 2026-05-05 13:03 | 13.19946 | 77.65696 | 16974 ft | 381 kts | 75° |
| 2026-05-05 13:03 | 13.20496 | 77.68321 | 16973 ft | 382 kts | 83° |
| 2026-05-05 13:03 | 13.20579 | 77.71041 | 16975 ft | 382 kts | 94° |
| 2026-05-05 13:04 | 13.20194 | 77.73741 | 16976 ft | 383 kts | 99° |
| 2026-05-05 13:04 | 13.19730 | 77.76431 | 16974 ft | 383 kts | 100° |
| 2026-05-05 13:04 | 13.19267 | 77.79124 | 16974 ft | 383 kts | 100° |
| 2026-05-05 13:04 | 13.18810 | 77.81820 | 16946 ft | 384 kts | 99° |
| 2026-05-05 13:05 | 13.18355 | 77.84520 | 16945 ft | 385 kts | 99° |
| 2026-05-05 13:05 | 13.17902 | 77.87226 | 16955 ft | 385 kts | 99° |
| 2026-05-05 13:05 | 13.17452 | 77.89898 | 16960 ft | 385 kts | 99° |
| 2026-05-05 13:05 | 13.16992 | 77.92607 | 16962 ft | 385 kts | 99° |
| 2026-05-05 13:06 | 13.16532 | 77.95315 | 16962 ft | 385 kts | 99° |
| 2026-05-05 13:06 | 13.16071 | 77.98021 | 16958 ft | 385 kts | 100° |
| 2026-05-05 13:06 | 13.15608 | 78.00730 | 16957 ft | 386 kts | 100° |
| 2026-05-05 13:06 | 13.15144 | 78.03440 | 16958 ft | 386 kts | 100° |
| 2026-05-05 13:07 | 13.14681 | 78.06151 | 16955 ft | 386 kts | 100° |
| 2026-05-05 13:07 | 13.14217 | 78.08863 | 16955 ft | 386 kts | 100° |
| 2026-05-05 13:07 | 13.13992 | 78.10180 | 16953 ft | 386 kts | 99° |
| 2026-05-05 13:08 | 13.13817 | 78.11187 | 16972 ft | 385 kts | 100° |
| 2026-05-05 13:08 | 13.13349 | 78.13894 | 16967 ft | 386 kts | 100° |
| 2026-05-05 13:08 | 13.12886 | 78.16607 | 16959 ft | 386 kts | 100° |
| 2026-05-05 13:08 | 13.12424 | 78.19317 | 16954 ft | 386 kts | 100° |
| 2026-05-05 13:09 | 13.11963 | 78.22026 | 16951 ft | 386 kts | 100° |
| 2026-05-05 13:09 | 13.11502 | 78.24737 | 16944 ft | 386 kts | 100° |
| 2026-05-05 13:09 | 13.11041 | 78.27446 | 16938 ft | 385 kts | 100° |
| 2026-05-05 13:09 | 13.10578 | 78.30155 | 16939 ft | 385 kts | 100° |
| 2026-05-05 13:10 | 13.10120 | 78.32824 | 16926 ft | 386 kts | 100° |
| 2026-05-05 13:10 | 13.09654 | 78.35532 | 16933 ft | 385 kts | 100° |
| 2026-05-05 13:10 | 13.09188 | 78.38237 | 16931 ft | 385 kts | 100° |
| 2026-05-05 13:10 | 13.08722 | 78.40943 | 16902 ft | 386 kts | 100° |
| 2026-05-05 13:11 | 13.08256 | 78.43652 | 16903 ft | 386 kts | 100° |
| 2026-05-05 13:11 | 13.07790 | 78.46358 | 16905 ft | 385 kts | 100° |
| 2026-05-05 13:11 | 13.07323 | 78.49068 | 16901 ft | 385 kts | 100° |
| 2026-05-05 13:11 | 13.06858 | 78.51773 | 16904 ft | 385 kts | 100° |
| 2026-05-05 13:12 | 13.06399 | 78.54445 | 16904 ft | 385 kts | 100° |
| 2026-05-05 13:12 | 13.05934 | 78.57151 | 16905 ft | 386 kts | 100° |
| 2026-05-05 13:12 | 13.05468 | 78.59856 | 16901 ft | 386 kts | 100° |
| 2026-05-05 13:12 | 13.05001 | 78.62566 | 16905 ft | 385 kts | 100° |
| 2026-05-05 13:13 | 13.04534 | 78.65271 | 16900 ft | 385 kts | 100° |
| 2026-05-05 13:13 | 13.04065 | 78.67975 | 16909 ft | 385 kts | 100° |
| 2026-05-05 13:13 | 13.03594 | 78.70681 | 16880 ft | 385 kts | 100° |
| 2026-05-05 13:13 | 13.03124 | 78.73386 | 16877 ft | 386 kts | 100° |
| 2026-05-05 13:14 | 13.02659 | 78.76062 | 16871 ft | 386 kts | 100° |
| 2026-05-05 13:14 | 13.02192 | 78.78772 | 16872 ft | 386 kts | 100° |
| 2026-05-05 13:14 | 13.01725 | 78.81483 | 16870 ft | 386 kts | 100° |
| 2026-05-05 13:14 | 13.01257 | 78.84194 | 16848 ft | 386 kts | 100° |
| 2026-05-05 13:15 | 13.00785 | 78.86910 | 16855 ft | 386 kts | 100° |
| 2026-05-05 13:15 | 13.00311 | 78.89619 | 16857 ft | 386 kts | 100° |
| 2026-05-05 13:15 | 12.99836 | 78.92327 | 16856 ft | 386 kts | 100° |
| 2026-05-05 13:15 | 12.99360 | 78.95039 | 16857 ft | 387 kts | 100° |
| 2026-05-05 13:16 | 12.98891 | 78.97716 | 16860 ft | 386 kts | 100° |
| 2026-05-05 13:16 | 12.98416 | 79.00428 | 16831 ft | 387 kts | 100° |
| 2026-05-05 13:16 | 12.97941 | 79.03142 | 16831 ft | 387 kts | 100° |
| 2026-05-05 13:16 | 12.97466 | 79.05852 | 16833 ft | 386 kts | 100° |
| 2026-05-05 13:17 | 12.96992 | 79.08564 | 16830 ft | 386 kts | 100° |
| 2026-05-05 13:17 | 12.96712 | 79.11296 | 16828 ft | 386 kts | 93° |
| 2026-05-05 13:17 | 12.96550 | 79.14043 | 16821 ft | 386 kts | 93° |
| 2026-05-05 13:17 | 12.96387 | 79.16787 | 16817 ft | 386 kts | 93° |
| 2026-05-05 13:18 | 12.96221 | 79.19503 | 16618 ft | 376 kts | 94° |
| 2026-05-05 13:18 | 12.96059 | 79.22103 | 16372 ft | 365 kts | 93° |
| 2026-05-05 13:18 | 12.95898 | 79.24669 | 16128 ft | 356 kts | 94° |
| 2026-05-05 13:18 | 12.95738 | 79.27170 | 15887 ft | 348 kts | 94° |
| 2026-05-05 13:19 | 12.95583 | 79.29624 | 15640 ft | 343 kts | 93° |
| 2026-05-05 13:19 | 12.95431 | 79.32053 | 15403 ft | 339 kts | 94° |
| 2026-05-05 13:19 | 12.95281 | 79.34454 | 15048 ft | 336 kts | 93° |
| 2026-05-05 13:19 | 12.95131 | 79.36842 | 14628 ft | 336 kts | 94° |
| 2026-05-05 13:20 | 12.94980 | 79.39227 | 14205 ft | 335 kts | 93° |
| 2026-05-05 13:20 | 12.94833 | 79.41582 | 13784 ft | 335 kts | 93° |
| 2026-05-05 13:20 | 12.94685 | 79.43960 | 13336 ft | 334 kts | 93° |
| 2026-05-05 13:20 | 12.94539 | 79.46309 | 13139 ft | 325 kts | 92° |
| 2026-05-05 13:21 | 12.94396 | 79.48577 | 13014 ft | 314 kts | 93° |
| 2026-05-05 13:21 | 12.94255 | 79.50801 | 12649 ft | 312 kts | 93° |
| 2026-05-05 13:21 | 12.94115 | 79.53023 | 12233 ft | 312 kts | 92° |
| 2026-05-05 13:21 | 12.93974 | 79.55247 | 11809 ft | 313 kts | 92° |
| 2026-05-05 13:22 | 12.93832 | 79.57473 | 11388 ft | 313 kts | 92° |
| 2026-05-05 13:22 | 12.93690 | 79.59697 | 10967 ft | 313 kts | 92° |
| 2026-05-05 13:22 | 12.93550 | 79.61896 | 10550 ft | 313 kts | 92° |
| 2026-05-05 13:22 | 12.93408 | 79.64123 | 10124 ft | 313 kts | 92° |
| 2026-05-05 13:23 | 12.93264 | 79.66352 | 9699 ft | 313 kts | 92° |
| 2026-05-05 13:23 | 12.93121 | 79.68577 | 9253 ft | 312 kts | 92° |
| 2026-05-05 13:23 | 12.92981 | 79.70792 | 8830 ft | 311 kts | 92° |
| 2026-05-05 13:23 | 12.92843 | 79.73000 | 8412 ft | 310 kts | 92° |
| 2026-05-05 13:24 | 12.92706 | 79.75199 | 7993 ft | 309 kts | 92° |
| 2026-05-05 13:24 | 12.92569 | 79.77389 | 7582 ft | 308 kts | 92° |
| 2026-05-05 13:24 | 12.92432 | 79.79533 | 7166 ft | 300 kts | 92° |
| 2026-05-05 13:24 | 12.92295 | 79.81621 | 6769 ft | 287 kts | 93° |
| 2026-05-05 13:25 | 12.92163 | 79.83625 | 6392 ft | 276 kts | 93° |
| 2026-05-05 13:25 | 12.92037 | 79.85552 | 6016 ft | 266 kts | 93° |
| 2026-05-05 13:25 | 12.91916 | 79.87415 | 5658 ft | 257 kts | 92° |
| 2026-05-05 13:25 | 12.91799 | 79.89213 | 5314 ft | 249 kts | 92° |
| 2026-05-05 13:26 | 12.91686 | 79.90952 | 4986 ft | 240 kts | 93° |
| 2026-05-05 13:26 | 12.91577 | 79.92628 | 4669 ft | 231 kts | 92° |
| 2026-05-05 13:26 | 12.91473 | 79.94223 | 4360 ft | 224 kts | 92° |
| 2026-05-05 13:26 | 12.91378 | 79.95786 | 4058 ft | 216 kts | 90° |
| 2026-05-05 13:27 | 12.91623 | 79.97248 | 3783 ft | 203 kts | 69° |
| 2026-05-05 13:27 | 12.92127 | 79.98567 | 3512 ft | 196 kts | 68° |
| 2026-05-05 13:27 | 12.92613 | 79.99850 | 3242 ft | 191 kts | 69° |
| 2026-05-05 13:27 | 12.93085 | 80.01104 | 2985 ft | 186 kts | 69° |
| 2026-05-05 13:28 | 12.93544 | 80.02330 | 2737 ft | 182 kts | 70° |
| 2026-05-05 13:28 | 12.94003 | 80.03556 | 2253 ft | 191 kts | 71° |
| 2026-05-05 13:28 | 12.94494 | 80.04863 | 1855 ft | 194 kts | 71° |
| 2026-05-05 13:28 | 12.94949 | 80.06069 | 1773 ft | 176 kts | 71° |
| 2026-05-05 13:29 | 12.95368 | 80.07180 | 1612 ft | 156 kts | 71° |
| 2026-05-05 13:29 | 12.95740 | 80.08171 | 1441 ft | 142 kts | 72° |
| 2026-05-05 13:29 | 12.96090 | 80.09103 | 1274 ft | 136 kts | 73° |
| 2026-05-05 13:29 | 12.96427 | 80.10001 | 1079 ft | 136 kts | 73° |
| 2026-05-05 13:30 | 12.96767 | 80.10906 | 942 ft | 136 kts | 73° |
| 2026-05-05 13:30 | 12.97106 | 80.11809 | 780 ft | 137 kts | 75° |
| 2026-05-05 13:30 | 12.97450 | 80.12725 | 605 ft | 141 kts | 75° |
| 2026-05-05 13:30 | 12.97793 | 80.13639 | 431 ft | 139 kts | 75° |
| 2026-05-05 13:31 | 12.98140 | 80.14562 | 240 ft | 139 kts | 75° |
| 2026-05-05 13:31 | 12.98491 | 80.15487 | 87 ft | 141 kts | 76° |
| 2026-05-05 13:31 | 12.98831 | 80.16413 | 51 ft | 137 kts | 71° |
| 2026-05-05 13:31 | 12.99079 | 80.17065 | 47 ft | 55 kts | 68° |
| 2026-05-05 13:32 | 12.99074 | 80.17206 | 47 ft | 15 kts | 164° |
| 2026-05-05 13:32 | 12.99001 | 80.17231 | 48 ft | 0 kts | 160° |
| 2026-05-05 13:33 | 12.98916 | 80.17198 | 49 ft | 23 kts | 247° |
| 2026-05-05 13:33 | 12.98868 | 80.17033 | 48 ft | 25 kts | 247° |
| 2026-05-05 13:33 | 12.98800 | 80.16858 | 47 ft | 27 kts | 249° |
| 2026-05-05 13:33 | 12.98736 | 80.16691 | 47 ft | 2 kts | 249° |
| 2026-05-05 13:34 | 12.98726 | 80.16690 | 48 ft | 4 kts | 177° |
| 2026-05-05 13:34 | 12.98662 | 80.16755 | 48 ft | 24 kts | 162° |
| 2026-05-05 13:34 | 12.98569 | 80.16686 | 48 ft | 17 kts | 247° |
| 2026-05-05 13:34 | 12.98546 | 80.16638 | 48 ft | 7 kts | 246° |
| 2026-05-05 13:35 | 12.98514 | 80.16590 | 48 ft | 10 kts | 201° |
| 2026-05-05 13:35 | 12.98457 | 80.16600 | 48 ft | 0 kts | 162° |